NWS Home NWS Lubbock West Texas Mesonet Three hour changes as of 0643 PM, Sat May 25, 2019

Latest   N   C   S   Daily Sum   3hrΔ   24hrΔ   Soil Data 
Site Map   24hr Precip   72hr Precip   Google Plot


Station Time of Last Temp Now Temp 3h ago Delta-T Dewpoint Now Dewpoint 3hr ago Delta-Td 3hr Press Change (mB)
Reese Center  06:35 PM 79.6 78.3 1.3 66.6 68.6 -2 -0.1
Abernathy  06:35 PM 73.6 73.9 -0.3 66.4 67.8 -1.4 0.1
Plainview  06:35 PM 61.6 61.8 -0.1 61 60.6 0.4 -0.8
Tahoka  06:35 PM 80.1 81.1 -1 65.7 68.1 -2.4 -0.8
Slaton  06:35 PM 79.1 76.1 3 66.6 67.9 -1.3 -0.6
Levelland  06:35 PM 81.3 82.2 -0.9 64 64.5 -0.5 -0.3
Roaring Springs  06:35 PM 76 77.6 -1.6 69.9 69.8 0 -1.3
Floydada  06:35 PM 74.4 71.7 2.7 67.1 68.2 -1.1 -0.6
Ralls  06:35 PM 75.1 74.9 0.3 65.8 67.5 -1.7 -0.8
Brownfield  06:35 PM 83 83.8 -0.8 64.3 65.9 -1.6 -0.5
Muleshoe  06:35 PM 68.8 76.6 -7.8 58.9 61.7 -2.8 -0.9
Morton  06:35 PM 77.1 68 9.2 66.7 65.2 1.5 -1.2
O'Donnell  06:35 PM 80.6 81.3 -0.8 61.9 63.3 -1.4 -0.9
Seagraves  06:35 PM 83.3 88 -4.7 63.8 64.2 -0.4 -0.5
Amherst  06:35 PM 65.6 65.4 0.2 58.5 59.1 -0.7 -0.8
Plains  06:35 PM 80.7 86.7 -5.9 65.3 62.3 3 -0.1
Lamesa  06:35 PM 81.6 82 -0.5 65.1 66.3 -1.2 -1
Hart  06:35 PM 65.5 64.6 0.9 60.1 61.4 -1.3 1.3
Friona  06:35 PM 73.3 66.9 6.4 63.2 64 -0.8 -1.8
Dimmitt  06:35 PM 68.1 69.5 -1.5 58.7 55.9 2.8 -0.7
Tulia  06:35 PM 64.6 60.9 3.7 60.7 58.6 2.1 -0.6
Silverton  06:35 PM 70.4 70.7 -0.3 66.5 66.6 -0.2 -0.5
Post  06:35 PM 82.6 78.8 3.9 65.7 69.7 -4 -1.6
Seminole  06:35 PM 82.7 85.8 -3.1 62.1 62.8 -0.7 -0.3
Gail  06:35 PM 82.4 81.5 0.9 65 67.1 -2.1 -0.9
White River Lake  06:35 PM 79.4 76.5 2.9 66.3 67.3 -0.9 -1.1
Graham  06:35 PM 80.3 79.4 0.9 65 67.1 -2.1 -1.4
Sundown  06:35 PM 80.4 83 -2.6 64.2 63.4 0.8 -0.2
Anton  06:35 PM 77.5 72 5.5 65.9 67.4 -1.4 0.4
Fluvanna  06:35 PM 82.7 81.4 1.3 64.7 66.1 -1.4 -1.2
Spur  06:35 PM 80.3 79.9 0.4 67.2 67.4 -0.3 -1.3
Northwest Lubbock  06:35 PM 80.3 76.7 3.6 65.9 70.2 -4.4 -0.3
Guthrie  06:35 PM 81.5 82.3 -0.8 67.3 67.3 -0.1 -2.2
Clarendon  06:35 PM 67 71.9 -4.9 63.5 66.5 -3 -0.3
Paducah  06:35 PM 79.5 83.8 -4.2 68.9 69.4 -0.5 -0.9
Snyder  06:35 PM 83 81.6 1.4 66.4 68.5 -2.1 -2
Memphis  06:35 PM 75.7 76.4 -0.7 69.5 69.3 0.3 -1.3
Jayton  06:35 PM 84.1 82.1 2 67.2 69.2 -1.9 -2
Pampa  06:35 PM 60 69.9 -10 57.5 66.5 -9 -1
Aspermont  06:35 PM 84.7 84 0.7 70.3 70.3 -0 -1.8
Hereford  06:35 PM 72.8 60.4 12.5 62.3 56.9 5.4 -2.9
Goodlett  06:35 PM 80.9 81.7 -0.8 69 69.9 -1 -2.2
McLean  06:35 PM 60 71.8 -11.8 58.8 66.9 -8.1 0.4
Denver City  06:35 PM 81.7 85.8 -4.2 62.5 57.7 4.8 -0.3
Lake Alan Henry  06:35 PM 83.5 81.3 2.2 66.3 69.9 -3.5 -1.6
Wolfforth  06:35 PM 80.2 79.7 0.5 65.6 67.6 -1.9 -0.4
Andrews  06:35 PM 82.9 80.4 2.5 62.2 63.5 -1.3 -1
Turkey  06:35 PM 76.2 74.7 1.5 68.7 68.7 -0.1 -1.2
Childress  06:35 PM 79.4 78.3 1.2 68.1 70 -1.9 -1.8
Tatum  06:35 PM 83.6 86.8 -3.2 60 58.6 1.4 -0.5
Northfield  06:35 PM 77.8 77.4 0.5 67.4 68 -0.6 -1.3
Dora  06:35 PM 84.3 80 4.3 44 73.3 -29.3 -1.3
Northwest San Angelo  06:35 PM 81.8 87.3 -5.4 63.5 64.2 -0.7 -0.5
Saint Lawrence  06:35 PM 75.3 79.4 -4.1 68.1 66.5 1.6 -0.2
Haskell  06:35 PM 84.5 85.7 -1.2 67.8 68.3 -0.5 -1.7
Wall  06:35 PM 84.7 91.2 -6.5 66.2 67.1 -0.9 -0.1
Seymour  06:35 PM 83.7 85.7 -2 69 69.1 -0.1 -1.7
Knox City  06:35 PM 84.6 88.2 -3.6 69.6 69.6 -0.1 -1.6
Guadalupe Mtns Park  06:35 PM 84.5 82.9 1.5 23.8 26 -2.2 -1.2
Caprock Canyons   06:35 PM 69.7 72.2 -2.5 66.9 68.9 -2.1 -0.6
Odell  06:35 PM 82 82.9 -0.9 70.4 71.1 -0.6 -2.7
Coyanosa  06:35 PM 76 77.9 -1.9 62.5 66.4 -3.9 -0.5
Big Lake  06:35 PM 78.3 82.3 -4 66.9 68.3 -1.4 -0.2
Junction  06:35 PM 86.6 86.6 0 65.9 66.9 -1 -0.9
Hobbs  06:35 PM 84.3 84.2 0.1 60.1 58.5 1.6 -0.2
Canadian  06:35 PM 60.8 72.6 -11.8 60.8 69.5 -8.7 0.7
Palo Duro Canyon State Park Rim  06:35 PM 63.7 65 -1.4 60.6 63.1 -2.6 -0.6
Bootleg  06:35 PM 74.2 66.7 7.6 62.6 58.2 4.4 -2
Sterling City  06:35 PM 77 82 -5 67.7 66.2 1.5 -0.5
Mertzon  06:35 PM 80.6 83.7 -3.1 66.6 69.4 -2.7 -0.9
Persimmon Gap  06:35 PM 95.6 99 -3.4 63 42.7 20.3 -1.3
Weinert  06:35 PM 83.7 86.5 -2.7 69.9 69.4 0.5 -1.6
Claude 12 Southwest  06:35 PM 63.1 68.3 -5.2 62.6 68.3 -5.7 -1.8
Amarillo 7 South Southeast  06:35 PM 67.3 69.3 -2 63.9 69.3 -5.4 -1.4
Umbarger  06:35 PM 70.9 70 0.8 64.4 62.9 1.5 -0.6
Lomax  06:35 PM 79.1 81.8 -2.7 67.9 67 0.8 -1.5
Amarillo 9 North Northeast  06:35 PM 68 70 -2 61.9 65.5 -3.6 -2.7
Aiken  06:35 PM 62.8 69.7 -7 61.7 68.2 -6.5 -0.7
Sweetwater  06:35 PM 78.9 81.9 -3 68 68.7 -0.8 -0.6
Dozier  06:35 PM 68.5 75.1 -6.5 68.3 72.7 -4.5 -0.2
Amarillo 15 North Northwest  06:35 PM 70.4 60.4 10 63.6 57 6.6 -3.4
Menard  06:35 PM 82.8 85.8 -3 67 68.2 -1.2 -0.5
Tarzan  06:35 PM 82.3 79.7 2.6 67.2 67.2 -0.1 -0.7
Goodnight  06:35 PM 62.4 70 -7.6 62.4 69.7 -7.3 0.9
Boys Ranch   06:35 PM 73.8 59.4 14.4 63.5 55.7 7.8 -1.9
Fort McKavett  06:35 PM 84.1 85.6 -1.5 65.5 68.2 -2.6 -0.3
Fort Chadbourne  06:35 PM 80.2 84.3 -4.1 70.1 70.1 -0.1 -0.2
Palo Duro Canyon State Park Floor  06:35 PM 66.4 70.1 -3.6 63.6 68.6 -5 0.2
Fort Lancaster  06:35 PM 86.4 87.1 -0.7 67.6 69.9 -2.3 0
Dell City 1N  06:35 PM 93.3 92 1.3 34.5 34.6 -0.2 -1.8
Clyde  06:35 PM 80.6 83.3 -2.7 70.5 70.3 0.2 -0.8
Snyder SSW  06:35 PM 83 81.6 1.4 66.9 69.8 -3 -2
Panhandle  06:35 PM 64.9 69.2 -4.3 59.7 68.5 -8.7 -0.2
Vigo Park  06:35 PM 65.4 68.5 -3.1 60.9 68.3 -7.3 -0.2
Welch  06:35 PM 82.9 85.9 -3 66.4 67.2 -0.7 -0.4
Throckmorton  01:15 PM 82.4 78.3 4.1 70.8 70.4 0.4 0
Sierra Blanca  06:35 PM 90.6 90.6 -0 27.4 25.2 2.2 -1.5
Fort Lewis CO  06:35 PM 65.8 65 0.8 23.5 25.7 -2.3 -1.2
New Home  06:35 PM 80.7 79.3 1.4 66.6 68.6 -2.1 -0.5
McCamey  06:35 PM 64.1 86.5 -22.3 63.8 68.7 -4.9 1.4
Stamford  06:35 PM 85.3 88 -2.6 70.1 70.5 -0.4 -1.2
Crowell  06:35 PM 84.1 84 0.1 70.6 71.4 -0.8 -1.9
Stinnett  06:35 PM 63.9 64.1 -0.2 58.7 60.7 -2 -3.4
Colorado City  06:35 PM 80.5 82.3 -1.8 68.6 69.2 -0.6 -1.3
Happy  06:35 PM 64.5 67.6 -3 61 66.8 -5.8 -0.4
Endee  06:35 PM 77.8 63.2 14.6 64.6 60.4 4.2 -2.3
JA Ranch  06:35 PM 68.8 72.9 -4.1 67.3 69 -1.8 0.1
Adrian  06:35 PM 71.5 60 11.5 63.7 56.8 7 -2.2
Lesley  06:35 PM 72.5 75.1 -2.6 70.4 70.8 -0.4 -1
Earth  06:35 PM 66 70.4 -4.4 60.5 63.7 -3.2 -0.3
Van Horn  06:35 PM 94.2 92.7 1.5 26.6 26.1 0.5 -1.7
Rotan  06:35 PM 85 83.2 1.8 67.9 70.1 -2.2 -1.8
Fritch  06:35 PM 70.3 63.3 7 61.3 60.5 0.8 -3.6
Estelline  06:35 PM 79.5 77.4 2.1 70.2 71.7 -1.4 -1.5
Crane  06:35 PM 73.4 79.9 -6.6 67.6 68.6 -1 -0.8
Hackberry  06:35 PM 82.4 84.9 -2.5 70.3 70.9 -0.6 -1.7
Romero 11 SSW  06:35 PM 76.8 65.4 11.5 59.4 62.1 -2.7 -2.4
Palo Duro Reservoir 1NW  06:35 PM 68.2 73.7 -5.5 58.7 67.5 -8.8 -1
South Plains 3ENE  06:35 PM 72.5 70.1 2.5 67.2 68.2 -0.9 1.2
Lake McClellan 2NW  06:35 PM 60.9 70.4 -9.5 59.4 67.7 -8.4 0.4
Segovia 7SSW  06:35 PM 83.6 84.4 -0.8 64.8 65.5 -0.7 -0.8
Castolon 1NW BBNP  06:30 PM 105.3 103 2.3 30.1 36.2 -6 -2.2
Smyer  06:35 PM 79.8 79.7 0.1 67 68.6 -1.6 -0
Olton  06:35 PM M 62.8 M -17966.2 60.7 M -1.2

West Texas Mesonet Home   Site Map/Menu  NWS Lubbock Soil Data  Daily Summary Page  24hr Precip  72hr Precip  Google Plot